Time;durP1;ratioP1;P1;durP2;ratioP2;P2;SDS_P1;SDS_P2;PMS_P1;PMS_P2;Temp;Humidity;BMP_temperature;BMP_pressure;BME280_temperature;BME280_humidity;BME280_pressure;Samples;Min_cycle;Max_cycle;Signal;HPM_P1;HPM_P2
2022/04/10 00:01:32;;;;;;;5.30;3.70;;;6.30;99.30;;;5.89;100.00;100741.63;5011750;28;20049;-78
2022/04/10 00:03:59;;;;;;;5.90;3.20;;;6.30;99.30;;;5.89;100.00;100732.91;5006580;28;20042;-79
2022/04/10 00:06:26;;;;;;;8.00;3.47;;;6.20;99.50;;;5.89;100.00;100744.22;5010569;28;20057;-78
2022/04/10 00:08:53;;;;;;;7.93;3.00;;;6.20;99.40;;;5.89;100.00;100749.44;5012648;28;20041;-78
2022/04/10 00:11:21;;;;;;;5.50;3.33;;;5.50;99.30;;;5.77;100.00;100758.13;5010030;28;20053;-78
2022/04/10 00:13:47;;;;;;;7.00;3.40;;;6.20;99.70;;;5.90;100.00;100761.63;5011618;28;20069;-77
2022/04/10 00:16:15;;;;;;;11.40;3.85;;;5.70;99.40;;;5.94;100.00;100767.75;5013623;28;20073;-79
2022/04/10 00:18:42;;;;;;;6.25;3.45;;;7.50;99.90;;;5.77;100.00;100765.94;5008126;28;20478;-78
2022/04/10 00:21:09;;;;;;;7.43;4.28;;;6.80;99.80;;;5.81;100.00;100762.50;5009975;28;20043;-78
2022/04/10 00:23:36;;;;;;;7.30;4.05;;;7.80;99.90;;;5.83;100.00;100765.09;5007401;28;20442;-78
2022/04/10 00:26:03;;;;;;;8.95;4.55;;;6.90;99.80;;;5.76;100.00;100760.75;4988765;28;20069;-78
2022/04/10 00:28:30;;;;;;;4.68;3.22;;;6.00;99.70;;;5.66;100.00;100770.28;5004802;28;20046;-78
2022/04/10 00:30:57;;;;;;;7.82;3.53;;;6.00;99.70;;;5.64;100.00;100770.28;4991104;28;20093;-79
2022/04/10 00:33:26;;;;;;;7.43;3.50;;;6.00;99.80;;;5.64;100.00;100767.66;4973294;28;20058;-78
2022/04/10 00:35:53;;;;;;;5.22;3.55;;;6.60;99.90;;;5.64;100.00;100764.19;5021517;28;20053;-79
2022/04/10 00:38:20;;;;;;;9.82;4.65;;;5.90;99.90;;;5.48;100.00;100758.03;5009760;28;20042;-79
2022/04/10 00:40:48;;;;;;;11.75;4.45;;;5.90;99.90;;;5.58;100.00;100757.22;5024442;28;20043;-80
2022/04/10 00:43:15;;;;;;;12.60;5.50;;;5.80;99.90;;;5.53;100.00;100761.53;5022220;28;20044;-78
2022/04/10 00:45:43;;;;;;;5.95;4.20;;;5.80;99.80;;;5.50;100.00;100762.41;5030680;28;20105;-78
2022/04/10 00:48:10;;;;;;;6.47;4.00;;;7.30;99.90;;;5.43;100.00;100771.06;5011658;28;20522;-78
2022/04/10 00:51:39;;;;;;;7.57;4.80;;;5.70;99.50;;;5.34;100.00;100773.66;5008675;28;20514;-78
2022/04/10 00:53:26;;;;;;;7.85;4.65;;;5.70;99.70;;;5.31;100.00;100776.28;5007957;28;20054;-78
2022/04/10 00:55:53;;;;;;;7.25;3.85;;;5.60;99.70;;;5.28;100.00;100778.84;5011670;28;20586;-78
2022/04/10 00:58:20;;;;;;;6.05;4.20;;;7.30;99.90;;;5.28;100.00;100757.97;5016259;28;20048;-78
2022/04/10 01:00:47;;;;;;;9.60;4.18;;;7.60;99.90;;;5.30;100.00;100764.06;5023372;28;20137;-78
2022/04/10 01:03:14;;;;;;;8.27;5.15;;;5.50;99.90;;;5.17;100.00;100774.47;5009755;28;20069;-79
2022/04/10 01:05:46;;;;;;;8.48;5.07;;;7.00;99.90;;;5.17;100.00;100773.56;5009445;28;20060;-80
2022/04/10 01:08:15;;;;;;;8.18;4.55;;;5.50;99.90;;;4.99;100.00;100775.22;4993255;28;20046;-79
2022/04/10 01:10:42;;;;;;;8.27;4.05;;;5.50;99.90;;;4.92;100.00;100784.75;5009130;28;20617;-78
2022/04/10 01:13:10;;;;;;;5.65;4.50;;;6.00;99.90;;;4.84;100.00;100789.06;5007757;28;20177;-78
2022/04/10 01:15:38;;;;;;;7.22;5.40;;;5.40;99.90;;;4.82;100.00;100783.81;5007767;28;20052;-79
2022/04/10 01:18:06;;;;;;;5.72;4.43;;;5.30;99.90;;;4.79;100.00;100780.31;4993143;28;20050;-77
2022/04/10 01:20:35;;;;;;;8.52;4.13;;;5.20;99.90;;;4.71;100.00;100784.63;4991277;28;20089;-78
2022/04/10 01:23:06;;;;;;;7.47;4.22;;;5.30;99.90;;;4.66;100.00;100784.59;4991211;28;20108;-78
2022/04/10 01:25:34;;;;;;;6.82;4.10;;;5.60;99.90;;;4.60;100.00;100784.53;5007295;28;20100;-77
2022/04/10 01:28:12;;;;;;;8.80;4.15;;;5.20;99.90;;;4.63;100.00;100785.44;4991197;28;20076;-77
2022/04/10 01:30:43;;;;;;;8.27;3.80;;;5.10;99.90;;;4.62;100.00;100788.03;5007569;28;20181;-78
2022/04/10 01:33:10;;;;;;;;;;;5.10;99.90;;;4.59;100.00;100781.06;4992950;28;20557;-77
2022/04/10 01:35:38;;;;;;;6.55;3.90;;;5.30;99.90;;;4.62;100.00;100794.13;5008408;28;20381;-77
2022/04/10 01:38:12;;;;;;;6.15;4.18;;;5.00;99.90;;;4.49;100.00;100795.75;5023642;28;20562;-76
2022/04/10 01:40:45;;;;;;;6.13;3.78;;;5.10;99.90;;;4.50;100.00;100799.22;5023385;28;20265;-76
2022/04/10 01:43:13;;;;;;;5.85;3.92;;;5.90;99.90;;;4.53;100.00;100796.66;4998587;28;20045;-77
2022/04/10 01:45:41;;;;;;;8.55;3.70;;;5.10;99.90;;;4.44;100.00;100792.22;5028564;28;20121;-78
2022/04/10 01:48:08;;;;;;;6.40;3.97;;;4.90;99.90;;;4.53;100.00;100791.47;4995998;28;20046;-77
2022/04/10 01:50:35;;;;;;;8.23;3.85;;;5.40;99.90;;;4.45;100.00;100798.31;5010396;28;20054;-78
2022/04/10 01:53:05;;;;;;;4.47;3.40;;;4.90;99.90;;;4.47;100.00;100791.38;4992788;28;20108;-77
2022/04/10 01:55:34;;;;;;;5.93;3.92;;;4.90;99.90;;;4.51;100.00;100799.25;4992089;28;20072;-77
2022/04/10 01:58:01;;;;;;;5.88;4.25;;;4.90;99.90;;;4.40;100.00;100791.34;4990908;28;20054;-77
2022/04/10 02:00:28;;;;;;;6.07;3.78;;;4.80;99.90;;;4.40;100.00;100799.16;4993232;28;20061;-78
2022/04/10 02:02:55;;;;;;;5.80;3.58;;;4.90;99.90;;;4.41;100.00;100792.22;4993352;28;20054;-77
2022/04/10 02:05:22;;;;;;;7.03;4.18;;;4.90;99.90;;;4.42;100.00;100791.34;4991186;28;20414;-77
2022/04/10 02:07:49;;;;;;;6.88;4.20;;;4.90;99.90;;;4.40;100.00;100800.88;4991920;28;20414;-77
2022/04/10 02:10:18;;;;;;;8.40;4.05;;;7.00;99.90;;;4.42;100.00;100798.31;5008507;28;20054;-77
2022/04/10 02:12:47;;;;;;;7.60;4.82;;;4.90;99.90;;;4.40;100.00;100790.47;4989866;28;20261;-77
2022/04/10 02:15:15;;;;;;;6.88;3.85;;;4.90;99.90;;;4.37;100.00;100795.66;5006673;28;20050;-77
2022/04/10 02:17:42;;;;;;;6.07;4.30;;;5.90;99.90;;;4.34;100.00;100795.63;5007272;28;20492;-77
2022/04/10 02:20:09;;;;;;;8.40;4.40;;;7.50;99.90;;;4.33;100.00;100792.13;5023645;28;20053;-78
2022/04/10 02:22:36;;;;;;;4.13;3.67;;;4.70;99.90;;;4.24;100.00;100794.69;5007023;28;20583;-77
2022/04/10 02:25:04;;;;;;;7.25;4.78;;;6.00;99.90;;;4.24;100.00;100792.09;4990073;28;20042;-77
2022/04/10 02:27:31;;;;;;;6.53;4.47;;;4.70;99.90;;;4.19;100.00;100797.25;5027665;28;20057;-77
2022/04/10 02:29:58;;;;;;;6.20;4.00;;;4.70;99.90;;;4.19;100.00;100796.34;4994158;28;20077;-78
2022/04/10 02:32:29;;;;;;;5.75;3.90;;;4.70;99.90;;;4.19;100.00;100797.25;5009584;28;20503;-77
2022/04/10 02:34:56;;;;;;;7.90;4.00;;;4.60;99.90;;;4.19;100.00;100806.78;5026069;28;20037;-78
2022/04/10 02:37:23;;;;;;;6.95;4.25;;;6.10;99.90;;;4.08;100.00;100802.34;5010186;28;20422;-78
2022/04/10 02:39:50;;;;;;;5.82;3.95;;;4.60;99.90;;;4.07;100.00;100799.72;5009926;28;20100;-79
2022/04/10 02:42:17;;;;;;;7.40;4.45;;;4.50;99.90;;;4.03;100.00;100801.41;5009648;28;20045;-77
2022/04/10 02:44:44;;;;;;;8.50;5.20;;;4.60;99.90;;;4.05;100.00;100797.09;4978837;28;20053;-78
2022/04/10 02:47:11;;;;;;;5.35;4.07;;;4.50;99.90;;;4.01;100.00;100799.69;5021837;28;20140;-77
2022/04/10 02:49:39;;;;;;;8.13;4.03;;;4.50;99.90;;;4.01;100.00;100800.53;5011260;28;20141;-77
2022/04/10 02:52:06;;;;;;;8.23;4.78;;;4.40;99.90;;;3.97;100.00;100812.63;4995167;28;20049;-77
2022/04/10 02:54:33;;;;;;;8.77;4.50;;;4.40;99.90;;;3.88;100.00;100807.34;4976829;28;20088;-77
2022/04/10 02:57:00;;;;;;;6.13;3.92;;;4.40;99.90;;;3.83;100.00;100801.22;5010148;28;20446;-77
2022/04/10 02:59:27;;;;;;;6.90;4.47;;;4.40;99.90;;;3.84;100.00;100805.59;5026919;28;20049;-77
2022/04/10 03:01:55;;;;;;;5.05;3.90;;;4.40;99.90;;;3.80;100.00;100798.56;5010679;28;20054;-79
2022/04/10 03:04:23;;;;;;;6.47;4.28;;;4.40;99.90;;;3.81;100.00;100806.41;5010692;28;20042;-77
2022/04/10 03:06:50;;;;;;;5.70;3.85;;;4.50;99.90;;;3.72;100.00;100798.50;5010700;28;20076;-76
2022/04/10 03:09:17;;;;;;;9.65;3.83;;;4.30;99.90;;;3.71;100.00;100808.91;5011260;28;20046;-77
2022/04/10 03:11:44;;;;;;;6.45;3.95;;;4.30;99.90;;;3.77;100.00;100808.97;4994550;28;20144;-77
2022/04/10 03:14:11;;;;;;;5.90;4.32;;;4.20;99.90;;;3.71;100.00;100803.69;4994405;28;20053;-78
2022/04/10 03:16:38;;;;;;;7.07;4.57;;;4.20;99.90;;;3.70;100.00;100813.22;5010682;28;20452;-76
2022/04/10 03:19:06;;;;;;;6.78;4.18;;;6.90;99.90;;;3.67;100.00;100808.88;4995004;28;20462;-77
2022/04/10 03:21:34;;;;;;;7.43;3.90;;;5.90;99.90;;;3.65;100.00;100812.31;4994550;28;20414;-77
2022/04/10 03:24:02;;;;;;;8.65;4.88;;;4.20;99.90;;;3.65;100.00;100813.16;5010405;28;20092;-77
2022/04/10 03:26:30;;;;;;;7.45;5.00;;;4.10;99.90;;;3.63;100.00;100821.81;5027550;28;20073;-78
2022/04/10 03:28:57;;;;;;;7.55;4.88;;;4.20;99.90;;;3.65;100.00;100826.16;5011053;28;20099;-77
2022/04/10 03:31:25;;;;;;;10.00;5.00;;;4.20;99.90;;;3.68;100.00;100830.56;4999560;28;20069;-76
2022/04/10 03:33:55;;;;;;;7.68;5.13;;;4.20;99.90;;;3.66;100.00;100824.47;4997933;28;20050;-78
2022/04/10 03:36:22;;;;;;;8.75;5.90;;;4.90;99.90;;;3.69;100.00;100827.09;4994559;28;20153;-78
2022/04/10 03:38:49;;;;;;;9.07;5.15;;;4.20;99.90;;;3.76;100.00;100838.44;4993369;28;20116;-78
2022/04/10 03:41:16;;;;;;;8.50;5.00;;;4.10;99.90;;;3.77;100.00;100841.09;5009524;28;20042;-78
2022/04/10 03:43:44;;;;;;;7.47;5.28;;;4.10;99.90;;;3.77;100.00;100846.28;5009883;28;20038;-76
2022/04/10 03:46:11;;;;;;;8.55;4.72;;;5.20;99.90;;;3.79;100.00;100854.97;4995840;28;20470;-77
2022/04/10 03:48:39;;;;;;;8.07;4.90;;;4.50;99.90;;;3.81;100.00;100852.38;5011551;28;20597;-79
2022/04/10 03:51:06;;;;;;;9.07;5.13;;;4.20;99.90;;;3.84;100.00;100852.44;5010995;28;20104;-77
2022/04/10 03:53:34;;;;;;;7.45;5.65;;;4.30;99.90;;;3.85;100.00;100856.78;4994253;28;20128;-77
2022/04/10 03:56:02;;;;;;;6.38;4.80;;;4.10;99.90;;;3.79;100.00;100861.91;4992618;28;20042;-77
2022/04/10 03:58:32;;;;;;;8.65;5.40;;;4.20;99.90;;;3.75;100.00;100862.72;5009344;28;20153;-78
2022/04/10 04:01:00;;;;;;;7.00;4.82;;;4.10;99.90;;;3.78;100.00;100870.56;4993129;28;20554;-77
2022/04/10 04:03:27;;;;;;;9.52;5.20;;;4.10;99.90;;;3.80;100.00;100871.47;4994821;28;20042;-77
2022/04/10 04:05:55;;;;;;;9.07;5.78;;;4.20;99.90;;;3.77;100.00;100874.03;5026922;28;20073;-76
2022/04/10 04:08:23;;;;;;;9.60;5.93;;;4.20;99.90;;;3.76;100.00;100885.31;4994699;28;20053;-77
2022/04/10 04:10:52;;;;;;;8.65;5.50;;;5.60;99.90;;;3.71;100.00;100884.38;5009604;28;20050;-77
2022/04/10 04:13:20;;;;;;;5.05;4.43;;;3.90;99.90;;;3.71;100.00;100882.63;5005265;28;20054;-77
2022/04/10 04:15:47;;;;;;;8.52;4.95;;;4.20;99.90;;;3.71;100.00;100886.97;4992503;28;20047;-77
2022/04/10 04:18:15;;;;;;;5.95;5.07;;;5.90;99.90;;;3.60;100.00;100881.66;5025644;28;20054;-78
2022/04/10 04:20:42;;;;;;;8.27;5.47;;;4.40;99.90;;;3.50;100.00;100891.91;5010221;28;20463;-78
2022/04/10 04:23:09;;;;;;;6.85;5.30;;;4.00;99.90;;;3.39;100.00;100889.19;4993435;28;20046;-78
2022/04/10 04:25:37;;;;;;;9.20;5.38;;;5.90;99.90;;;3.36;100.00;100889.16;5009683;28;20045;-78
2022/04/10 04:28:07;;;;;;;7.03;5.20;;;3.50;99.90;;;3.48;100.00;100893.63;5009547;28;20534;-78
2022/04/10 04:30:34;;;;;;;12.73;7.95;;;4.00;99.90;;;3.49;100.00;100895.38;5010581;28;20050;-78
2022/04/10 04:33:03;;;;;;;10.87;7.90;;;3.90;99.90;;;3.54;100.00;100896.31;5009851;28;20050;-77
2022/04/10 04:35:32;;;;;;;11.00;7.75;;;3.90;99.90;;;3.52;100.00;100898.00;5007678;28;20868;-78
2022/04/10 04:38:00;;;;;;;12.98;7.75;;;3.90;99.90;;;3.45;100.00;100900.50;5008202;28;20052;-78
2022/04/10 04:40:28;;;;;;;11.70;7.32;;;6.30;99.90;;;3.35;100.00;100908.16;5004581;28;20038;-77
2022/04/10 04:42:56;;;;;;;9.50;6.63;;;4.80;99.90;;;3.40;100.00;100908.25;5026258;28;20053;-79
2022/04/10 04:45:25;;;;;;;10.52;6.55;;;3.80;99.90;;;3.28;100.00;100910.66;4996096;28;20148;-77
2022/04/10 04:48:13;;;;;;;9.00;7.60;;;3.80;99.90;;;3.31;100.00;100914.19;4990216;28;20589;-78
2022/04/10 04:50:44;;;;;;;8.23;6.90;;;3.70;99.90;;;3.32;100.00;100915.09;4974986;28;20056;-78
2022/04/10 04:53:16;;;;;;;10.93;8.38;;;3.60;99.90;;;3.38;100.00;100916.03;4976610;28;20057;-77
2022/04/10 04:55:44;;;;;;;9.70;7.75;;;3.70;99.90;;;3.41;100.00;100920.41;4991327;28;20046;-79
2022/04/10 04:58:13;;;;;;;10.30;6.28;;;3.70;99.90;;;3.46;100.00;100923.06;4989456;28;20161;-78
2022/04/10 05:00:40;;;;;;;8.27;5.50;;;4.40;99.90;;;3.48;100.00;100917.06;4974477;28;20046;-78
2022/04/10 05:03:07;;;;;;;8.82;5.65;;;3.90;99.90;;;3.51;100.00;100929.19;4991974;28;20467;-77
2022/04/10 05:05:35;;;;;;;7.53;6.20;;;6.30;99.90;;;3.53;100.00;100932.72;4975055;28;20109;-78
2022/04/10 05:08:13;;;;;;;8.77;5.25;;;6.50;99.90;;;3.60;100.00;100926.75;4975229;28;20551;-79
2022/04/10 05:10:40;;;;;;;7.88;5.50;;;5.20;99.90;;;3.54;100.00;100924.06;4974242;28;20043;-77
2022/04/10 05:13:08;;;;;;;6.57;4.95;;;5.50;99.90;;;3.60;100.00;100928.50;4990372;28;20056;-79
2022/04/10 05:15:36;;;;;;;6.82;5.30;;;4.00;99.90;;;3.68;100.00;100927.75;5007097;28;20056;-79
2022/04/10 05:18:03;;;;;;;9.45;6.18;;;4.10;99.90;;;3.71;100.00;100934.69;5010060;28;20037;-79
2022/04/10 05:20:33;;;;;;;10.10;6.55;;;4.00;99.90;;;3.72;100.00;100941.63;4995379;28;20069;-78
2022/04/10 05:23:11;;;;;;;8.85;5.43;;;3.80;99.90;;;3.81;100.00;100953.91;5010586;28;20137;-79
2022/04/10 05:25:41;;;;;;;6.25;4.68;;;4.20;99.90;;;3.80;100.00;100967.78;4991893;28;20048;-78
2022/04/10 05:28:09;;;;;;;7.75;4.97;;;4.20;99.90;;;3.81;100.00;100961.72;4990662;28;20068;-79
2022/04/10 05:30:39;;;;;;;7.40;4.03;;;4.20;99.90;;;3.88;100.00;100958.34;4992470;28;20042;-78
2022/04/10 05:33:13;;;;;;;9.27;5.05;;;4.60;99.90;;;3.91;100.00;100965.34;4997575;28;20057;-78
2022/04/10 05:35:41;;;;;;;7.03;5.35;;;4.30;99.90;;;3.93;100.00;100971.44;4992013;28;20138;-78
2022/04/10 05:38:09;;;;;;;8.98;4.93;;;4.20;99.90;;;3.94;100.00;100973.19;5024847;28;20047;-78
2022/04/10 05:40:38;;;;;;;7.22;4.93;;;4.30;99.90;;;4.03;100.00;100973.28;5026503;28;20430;-78
2022/04/10 05:43:05;;;;;;;11.30;6.05;;;4.40;99.90;;;4.02;100.00;100983.69;5042264;28;20121;-78
2022/04/10 05:45:33;;;;;;;8.75;5.03;;;4.40;99.90;;;4.01;100.00;100979.34;5026675;28;20045;-77
2022/04/10 05:48:01;;;;;;;5.63;4.90;;;4.40;99.90;;;4.10;100.00;100993.34;5026163;28;20503;-77
2022/04/10 05:50:31;;;;;;;6.15;5.15;;;4.30;99.90;;;4.04;100.00;100993.25;5027682;28;20051;-78
2022/04/10 05:52:58;;;;;;;7.60;4.90;;;4.50;99.90;;;4.20;100.00;100993.44;5025418;28;20140;-77
2022/04/10 05:55:29;;;;;;;6.75;4.90;;;4.50;99.90;;;4.29;100.00;101003.09;5022125;28;20435;-76
2022/04/10 05:58:03;;;;;;;7.15;5.03;;;4.60;99.90;;;4.34;100.00;101002.31;5017468;28;20502;-76
2022/04/10 06:00:31;;;;;;;6.07;5.15;;;4.50;99.90;;;4.39;100.00;101004.97;5015610;28;20058;-76
2022/04/10 06:03:09;;;;;;;8.98;5.10;;;4.60;99.90;;;4.37;100.00;101009.31;4998201;28;20042;-76
2022/04/10 06:05:40;;;;;;;8.95;4.78;;;4.80;99.90;;;4.39;100.00;101002.38;5018955;28;20045;-77
2022/04/10 06:08:14;;;;;;;6.70;4.50;;;4.70;99.90;;;4.40;100.00;101012.84;5017240;28;20053;-77
2022/04/10 06:10:42;;;;;;;7.95;5.32;;;4.70;99.90;;;4.46;100.00;101012.03;5014231;28;20132;-77
2022/04/10 06:13:11;;;;;;;7.60;5.77;;;4.80;99.90;;;4.40;100.00;101014.53;5035339;28;20111;-78
2022/04/10 06:15:51;;;;;;;8.77;6.13;;;6.60;99.90;;;4.44;100.00;101010.25;5017777;28;20867;-77
2022/04/10 06:18:20;;;;;;;7.88;5.47;;;4.80;99.90;;;4.51;100.00;101012.94;5001401;28;20043;-78
2022/04/10 06:20:47;;;;;;;10.48;8.07;;;4.80;99.90;;;4.54;100.00;101023.41;4995730;28;20145;-78
2022/04/10 06:23:15;;;;;;;10.18;7.07;;;6.90;99.90;;;4.58;100.00;101021.72;4995946;28;20065;-77
2022/04/10 06:25:45;;;;;;;7.40;5.72;;;4.90;99.90;;;4.59;100.00;101023.47;5029712;28;20118;-78
2022/04/10 06:28:13;;;;;;;9.75;5.65;;;4.90;99.90;;;4.62;100.00;101020.88;5013682;28;20046;-78
2022/04/10 06:30:45;;;;;;;10.23;5.68;;;5.00;99.90;;;4.68;100.00;101022.69;5026078;28;20053;-79
2022/04/10 06:33:15;;;;;;;7.53;5.00;;;5.00;99.90;;;4.64;100.00;101029.59;5008832;28;20054;-79
2022/04/10 06:35:46;;;;;;;7.80;5.28;;;5.00;99.90;;;4.66;100.00;101025.25;4989489;28;20109;-77
2022/04/10 06:38:15;;;;;;;11.23;4.97;;;6.80;99.90;;;4.74;100.00;101025.34;4999609;28;20141;-78
2022/04/10 06:40:48;;;;;;;7.93;5.60;;;5.00;99.90;;;4.79;100.00;101025.41;5026657;28;20052;-77
2022/04/10 06:43:15;;;;;;;8.98;6.00;;;6.80;99.90;;;4.81;100.00;101034.09;4994516;28;20043;-78
2022/04/10 06:46:13;;;;;;;7.65;5.53;;;5.20;99.90;;;4.89;100.00;101035.06;5008004;28;20058;-77
2022/04/10 06:48:57;;;;;;;7.43;5.47;;;5.30;99.90;;;4.96;100.00;101031.66;5015430;28;20050;-78
2022/04/10 06:51:25;;;;;;;7.72;5.57;;;5.30;99.90;;;5.06;100.00;101040.44;5010567;28;20056;-79
2022/04/10 06:53:52;;;;;;;10.95;6.18;;;5.30;99.90;;;5.11;100.00;101041.38;5011147;28;20084;-79
2022/04/10 06:56:21;;;;;;;5.20;4.70;;;5.40;99.90;;;5.18;100.00;101039.69;4995610;28;20070;-79
2022/04/10 06:58:48;;;;;;;7.70;5.75;;;5.80;99.90;;;5.20;100.00;101031.88;5012118;28;20553;-78
2022/04/10 07:01:15;;;;;;;8.52;5.25;;;5.50;99.90;;;5.25;100.00;101035.41;5026453;28;20711;-79
2022/04/10 07:03:43;;;;;;;7.53;5.18;;;7.30;99.90;;;5.28;100.00;101032.81;5007137;28;20052;-79
2022/04/10 07:06:13;;;;;;;9.85;5.47;;;7.60;99.90;;;5.35;100.00;101037.22;5007976;28;20515;-78
2022/04/10 07:08:41;;;;;;;9.45;5.43;;;5.30;99.90;;;5.34;100.00;101038.09;4992960;28;20558;-78
2022/04/10 07:11:11;;;;;;;7.40;5.47;;;5.60;99.90;;;5.43;100.00;101029.44;5009044;28;20056;-79
2022/04/10 07:13:39;;;;;;;7.40;5.15;;;5.70;99.90;;;5.54;100.00;101047.81;5033165;28;20065;-77
2022/04/10 07:16:06;;;;;;;9.10;5.75;;;8.40;99.90;;;5.58;100.00;101052.22;5006802;28;20038;-79
2022/04/10 07:18:33;;;;;;;6.18;4.88;;;6.40;99.90;;;5.61;100.00;101057.44;5014520;28;20038;-80
2022/04/10 07:21:07;;;;;;;8.45;6.55;;;6.30;99.90;;;5.70;100.00;101048.81;5017418;28;20100;-78
2022/04/10 07:23:41;;;;;;;7.53;5.10;;;5.90;99.90;;;5.78;100.00;101054.09;5032155;28;20042;-78
2022/04/10 07:26:14;;;;;;;9.35;5.72;;;7.40;99.90;;;5.86;100.00;101052.41;5013233;28;20046;-77
2022/04/10 07:28:43;;;;;;;7.28;5.65;;;5.90;99.90;;;5.93;100.00;101046.34;5011612;28;20046;-77
2022/04/10 07:31:11;;;;;;;7.07;5.10;;;7.50;99.90;;;6.02;100.00;101048.16;5010579;28;20073;-77
2022/04/10 07:33:39;;;;;;;10.30;5.70;;;6.60;99.90;;;6.07;100.00;101051.66;5000375;28;20073;-77
2022/04/10 07:36:18;;;;;;;8.07;4.90;;;7.70;99.90;;;6.07;100.00;101046.44;5027970;28;20046;-77
2022/04/10 07:38:45;;;;;;;9.40;5.47;;;6.30;99.90;;;6.11;100.00;101047.34;4995243;28;20053;-78
2022/04/10 07:41:19;;;;;;;7.25;5.30;;;6.30;99.90;;;6.14;100.00;101055.19;4996665;28;20042;-77
2022/04/10 07:43:50;;;;;;;9.30;5.93;;;6.40;99.90;;;6.20;100.00;101060.47;4998278;28;20058;-78
2022/04/10 07:49:11;;;;;;;8.48;5.72;;;6.50;99.90;;;6.31;100.00;101064.84;4999915;28;20057;-77
2022/04/10 07:51:46;;;;;;;5.97;5.22;;;6.50;99.90;;;6.34;100.00;101060.53;4997167;28;20046;-78
2022/04/10 07:54:19;;;;;;;7.40;5.75;;;6.50;99.90;;;6.38;100.00;101061.41;5027563;28;20049;-79
2022/04/10 07:56:47;;;;;;;10.63;6.10;;;6.50;99.90;;;6.34;100.00;101059.66;5012169;28;20129;-78
2022/04/10 07:59:23;;;;;;;6.97;5.70;;;7.50;99.90;;;6.49;100.00;101072.81;4997956;28;20081;-79
2022/04/10 08:01:51;;;;;;;9.82;5.43;;;6.60;99.90;;;6.56;100.00;101071.09;4995541;28;20503;-77
2022/04/10 08:04:25;;;;;;;8.48;5.82;;;6.70;99.90;;;6.53;100.00;101084.13;5026871;28;20620;-78
2022/04/10 08:07:07;;;;;;;7.22;6.15;;;8.00;99.90;;;6.70;100.00;101081.59;4995722;28;20081;-76
2022/04/10 08:09:34;;;;;;;8.13;5.80;;;7.20;99.90;;;6.79;100.00;101084.25;5009324;28;20462;-77
2022/04/10 08:12:01;;;;;;;8.40;5.65;;;6.80;99.90;;;6.83;100.00;101084.25;5011068;28;20053;-78
2022/04/10 08:14:28;;;;;;;9.02;6.18;;;6.90;99.90;;;6.90;100.00;101086.00;5011645;28;20473;-78
2022/04/10 08:16:56;;;;;;;8.50;5.80;;;6.90;99.90;;;6.77;100.00;101088.56;5012104;28;20100;-77
2022/04/10 08:19:23;;;;;;;8.77;6.05;;;7.00;99.90;;;6.80;100.00;101090.34;5011775;28;20141;-77
2022/04/10 08:21:50;;;;;;;8.48;5.90;;;7.00;99.90;;;6.82;100.00;101091.22;5027916;28;20053;-78
2022/04/10 08:24:17;;;;;;;9.48;5.93;;;7.10;99.90;;;6.96;100.00;101099.13;4992360;28;20042;-77
2022/04/10 08:26:44;;;;;;;9.07;5.93;;;7.00;99.90;;;6.98;100.00;101105.22;5006039;28;20050;-77
2022/04/10 08:29:12;;;;;;;8.65;5.65;;;7.10;99.90;;;7.06;100.00;101113.09;4990575;28;20070;-78
2022/04/10 08:31:39;;;;;;;7.90;5.82;;;7.10;99.90;;;6.87;100.00;101110.44;5010481;28;20511;-78
2022/04/10 08:34:06;;;;;;;9.18;5.82;;;7.10;99.80;;;7.03;100.00;101111.34;4993341;28;20495;-78
2022/04/10 08:36:35;;;;;;;7.15;6.03;;;7.10;99.90;;;7.04;100.00;101115.69;4994958;28;20065;-78
2022/04/10 08:39:02;;;;;;;9.80;6.60;;;7.20;99.90;;;6.99;100.00;101109.59;5017167;28;20049;-77
2022/04/10 08:41:32;;;;;;;9.75;6.07;;;7.20;99.90;;;7.09;100.00;101113.09;5010775;28;20132;-78
2022/04/10 08:44:01;;;;;;;11.35;5.97;;;9.20;99.90;;;7.14;100.00;101118.34;5010958;28;20042;-78
2022/04/10 08:46:30;;;;;;;7.93;6.05;;;7.20;99.90;;;7.21;100.00;101110.50;4996184;28;20049;-78
2022/04/10 08:49:01;;;;;;;8.32;5.95;;;7.20;99.90;;;7.29;100.00;101114.88;4995314;28;20046;-77
2022/04/10 08:51:30;;;;;;;8.25;4.97;;;7.30;99.90;;;7.30;100.00;101107.03;4994463;28;20060;-78
2022/04/10 08:53:59;;;;;;;8.13;4.53;;;8.80;99.00;;;7.27;100.00;101106.16;4996389;28;20054;-79
2022/04/10 08:56:26;;;;;;;9.15;5.57;;;9.20;97.80;;;7.45;100.00;101108.78;5011160;28;20045;-80
2022/04/10 08:58:53;;;;;;;10.90;4.80;;;7.50;97.30;;;7.50;100.00;101101.81;5013024;28;20042;-79
2022/04/10 09:01:22;;;;;;;7.50;5.20;;;7.60;96.50;;;7.61;100.00;101103.56;5017738;28;20034;-79
2022/04/10 09:03:49;;;;;;;8.15;5.10;;;7.70;96.30;;;7.68;100.00;101107.94;5001750;28;20042;-79
2022/04/10 09:06:17;;;;;;;9.65;5.50;;;7.70;96.00;;;7.81;100.00;101108.78;5022824;28;20052;-79
2022/04/10 09:08:44;;;;;;;10.52;6.30;;;7.80;96.20;;;8.01;100.00;101098.28;5004760;28;20042;-78
2022/04/10 09:11:12;;;;;;;7.05;4.75;;;7.90;96.40;;;8.29;100.00;101100.88;5012458;28;20380;-78
2022/04/10 09:13:47;;;;;;;6.80;4.93;;;9.80;97.10;;;8.57;100.00;101097.28;5013813;28;20109;-79
2022/04/10 09:16:23;;;;;;;8.32;5.82;;;8.30;96.80;;;8.68;100.00;101102.50;4995913;28;20117;-80
2022/04/10 09:18:58;;;;;;;7.82;5.00;;;8.50;96.20;;;8.84;100.00;101104.16;5014179;28;20064;-79
2022/04/10 09:21:29;;;;;;;7.05;4.85;;;8.90;96.60;;;8.86;100.00;101109.41;5018450;28;20407;-78
2022/04/10 09:24:01;;;;;;;7.75;5.25;;;8.80;96.40;;;8.74;96.01;101113.84;4994413;28;20287;-79
2022/04/10 09:26:48;;;;;;;7.20;5.00;;;8.90;95.30;;;8.79;100.00;101117.31;5009861;28;20060;-80
2022/04/10 09:29:21;;;;;;;7.97;5.03;;;8.90;95.60;;;8.86;100.00;101105.03;5008160;28;20506;-78
2022/04/10 09:31:53;;;;;;;6.90;4.65;;;9.80;96.10;;;8.94;100.00;101108.50;5009123;28;20112;-78
2022/04/10 09:34:27;;;;;;;8.63;5.28;;;8.90;95.70;;;9.02;99.84;101108.44;5009206;28;20050;-79
2022/04/10 09:37:14;;;;;;;10.00;4.93;;;9.90;95.80;;;9.03;100.00;101109.31;4993861;28;20046;-80
2022/04/10 09:39:41;;;;;;;8.27;4.70;;;10.20;95.50;;;9.22;100.00;101117.97;4990075;28;20137;-80
2022/04/10 09:42:10;;;;;;;12.88;5.18;;;9.30;95.60;;;9.17;99.31;101115.34;4992155;28;20088;-79
2022/04/10 09:44:57;;;;;;;8.35;4.82;;;9.40;95.10;;;9.08;98.57;101105.78;5008423;28;20129;-80
2022/04/10 09:47:27;;;;;;;8.45;5.22;;;9.40;95.30;;;9.29;100.00;101118.78;5005809;28;20073;-79
2022/04/10 09:50:03;;;;;;;;;;;9.40;95.80;;;9.36;95.78;101102.97;5028860;28;20073;-80
2022/04/10 09:52:35;;;;;;;10.48;7.15;;;9.40;94.90;;;9.55;97.10;101110.72;4998898;28;19931;-78
2022/04/10 09:55:04;;;;;;;9.20;6.50;;;10.00;95.40;;;9.71;96.67;101115.84;5012481;28;20388;-77
2022/04/10 09:57:34;;;;;;;7.82;5.75;;;9.60;95.20;;;9.78;91.94;101107.03;4998571;28;20038;-77
2022/04/10 10:00:03;;;;;;;7.70;5.55;;;10.00;94.80;;;10.03;94.19;101118.19;5012593;28;20038;-80
2022/04/10 10:02:38;;;;;;;7.60;4.90;;;9.80;94.90;;;9.96;84.56;101113.00;5007190;28;20454;-79
2022/04/10 10:05:07;;;;;;;7.20;5.10;;;10.00;93.80;;;9.79;82.06;101112.25;4993099;28;20049;-77
2022/04/10 10:07:36;;;;;;;5.07;4.57;;;10.00;93.20;;;9.65;81.92;101109.78;5028929;28;20049;-79
2022/04/10 10:10:04;;;;;;;23.23;16.20;;;10.00;92.90;;;9.73;81.79;101103.56;5012033;28;20052;-77
2022/04/10 10:12:33;;;;;;;13.55;11.60;;;9.90;93.00;;;9.58;78.09;101102.81;4994314;28;20054;-79
2022/04/10 10:15:01;;;;;;;15.98;11.70;;;9.90;92.20;;;9.68;78.00;101105.38;4990869;28;20758;-80
2022/04/10 10:17:28;;;;;;;11.43;8.77;;;9.80;92.40;;;9.74;82.36;101103.56;5013257;28;20111;-80
2022/04/10 10:19:57;;;;;;;13.52;12.25;;;9.90;93.10;;;9.76;84.27;101098.31;5016532;28;20042;-78
2022/04/10 10:22:25;;;;;;;7.15;6.43;;;9.90;93.10;;;9.58;82.92;101096.69;5029517;28;20049;-78
2022/04/10 10:25:15;;;;;;;8.18;5.85;;;9.90;92.90;;;9.44;82.95;101102.91;5009095;28;20046;-78
2022/04/10 10:28:19;;;;;;;8.05;6.10;;;9.90;92.70;;;9.72;89.62;101105.34;5012797;28;20052;-79
2022/04/10 10:31:39;;;;;;;8.38;6.57;;;9.80;93.70;;;9.68;88.30;101103.63;5025764;28;20053;-78
2022/04/10 10:34:09;;;;;;;9.32;5.75;;;9.80;93.50;;;9.70;89.95;101095.72;5009718;28;20545;-79